sensor_id;sensor_type;location;lat;lon;timestamp;pressure;altitude;pressure_sealevel;temperature;humidity
75505;BME280;64085;54.974;73.410;2023-04-09T00:03:55;70810.53;;;-144.90;100.00
75505;BME280;64085;54.974;73.410;2023-04-09T00:09:24;70810.53;;;-144.90;100.00
75505;BME280;64085;54.974;73.410;2023-04-09T00:11:49;70810.53;;;-144.90;100.00
75505;BME280;64085;54.974;73.410;2023-04-09T00:14:33;70810.53;;;-144.90;100.00
75505;BME280;64085;54.974;73.410;2023-04-09T00:16:59;70810.53;;;-144.90;100.00
75505;BME280;64085;54.974;73.410;2023-04-09T00:19:25;70810.53;;;-144.90;100.00
75505;BME280;64085;54.974;73.410;2023-04-09T00:21:50;70810.53;;;-144.90;100.00
75505;BME280;64085;54.974;73.410;2023-04-09T00:24:17;70810.53;;;-144.90;100.00
75505;BME280;64085;54.974;73.410;2023-04-09T00:26:42;70810.53;;;-144.90;100.00
75505;BME280;64085;54.974;73.410;2023-04-09T00:29:08;70810.53;;;-144.90;100.00
75505;BME280;64085;54.974;73.410;2023-04-09T00:34:17;70810.53;;;-144.90;100.00
75505;BME280;64085;54.974;73.410;2023-04-09T00:36:43;70810.53;;;-144.90;100.00
75505;BME280;64085;54.974;73.410;2023-04-09T00:39:09;70810.53;;;-144.90;100.00
75505;BME280;64085;54.974;73.410;2023-04-09T00:41:34;70810.53;;;-144.90;100.00
75505;BME280;64085;54.974;73.410;2023-04-09T00:49:27;70810.53;;;-144.90;100.00
75505;BME280;64085;54.974;73.410;2023-04-09T00:51:53;70810.53;;;-144.90;100.00
75505;BME280;64085;54.974;73.410;2023-04-09T00:54:38;70810.53;;;-144.90;100.00
75505;BME280;64085;54.974;73.410;2023-04-09T00:57:03;70810.53;;;-144.90;100.00
75505;BME280;64085;54.974;73.410;2023-04-09T00:59:29;70810.53;;;-144.90;100.00
75505;BME280;64085;54.974;73.410;2023-04-09T01:01:55;70810.53;;;-144.90;100.00
75505;BME280;64085;54.974;73.410;2023-04-09T01:04:39;70810.53;;;-144.90;100.00
75505;BME280;64085;54.974;73.410;2023-04-09T01:07:26;70810.53;;;-144.90;100.00
75505;BME280;64085;54.974;73.410;2023-04-09T01:15:55;70810.53;;;-144.90;100.00
75505;BME280;64085;54.974;73.410;2023-04-09T01:18:55;70810.53;;;-144.90;100.00
75505;BME280;64085;54.974;73.410;2023-04-09T01:21:26;70810.53;;;-144.90;100.00
75505;BME280;64085;54.974;73.410;2023-04-09T01:24:25;70810.53;;;-144.90;100.00
75505;BME280;64085;54.974;73.410;2023-04-09T01:27:07;70810.53;;;-144.90;100.00
75505;BME280;64085;54.974;73.410;2023-04-09T01:29:44;70810.53;;;-144.90;100.00
75505;BME280;64085;54.974;73.410;2023-04-09T01:32:11;70810.53;;;-144.90;100.00
75505;BME280;64085;54.974;73.410;2023-04-09T01:34:38;70810.53;;;-144.90;100.00
75505;BME280;64085;54.974;73.410;2023-04-09T01:37:06;70810.53;;;-144.90;100.00
75505;BME280;64085;54.974;73.410;2023-04-09T01:39:32;70810.53;;;-144.90;100.00
75505;BME280;64085;54.974;73.410;2023-04-09T01:41:59;70810.53;;;-144.90;100.00
75505;BME280;64085;54.974;73.410;2023-04-09T01:44:28;70810.53;;;-144.90;100.00
75505;BME280;64085;54.974;73.410;2023-04-09T01:46:55;70810.53;;;-144.90;100.00
75505;BME280;64085;54.974;73.410;2023-04-09T01:49:22;70810.53;;;-144.90;100.00
75505;BME280;64085;54.974;73.410;2023-04-09T01:51:48;70810.53;;;-144.90;100.00
75505;BME280;64085;54.974;73.410;2023-04-09T01:56:59;70810.53;;;-144.90;100.00
75505;BME280;64085;54.974;73.410;2023-04-09T01:59:43;70810.53;;;-144.90;100.00
75505;BME280;64085;54.974;73.410;2023-04-09T02:02:32;70810.53;;;-144.90;100.00
75505;BME280;64085;54.974;73.410;2023-04-09T02:05:03;70810.53;;;-144.90;100.00
75505;BME280;64085;54.974;73.410;2023-04-09T02:07:37;70810.53;;;-144.90;100.00
75505;BME280;64085;54.974;73.410;2023-04-09T02:10:05;70810.53;;;-144.90;100.00
75505;BME280;64085;54.974;73.410;2023-04-09T02:12:51;70810.53;;;-144.90;100.00
75505;BME280;64085;54.974;73.410;2023-04-09T02:15:20;70810.53;;;-144.90;100.00
75505;BME280;64085;54.974;73.410;2023-04-09T02:17:46;70810.53;;;-144.90;100.00
75505;BME280;64085;54.974;73.410;2023-04-09T02:20:18;70810.53;;;-144.90;100.00
75505;BME280;64085;54.974;73.410;2023-04-09T02:22:47;70810.53;;;-144.90;100.00
75505;BME280;64085;54.974;73.410;2023-04-09T02:25:50;70810.53;;;-144.90;100.00
75505;BME280;64085;54.974;73.410;2023-04-09T02:28:17;70810.53;;;-144.90;100.00
75505;BME280;64085;54.974;73.410;2023-04-09T02:31:01;70810.53;;;-144.90;100.00
75505;BME280;64085;54.974;73.410;2023-04-09T02:33:27;70810.53;;;-144.90;100.00
75505;BME280;64085;54.974;73.410;2023-04-09T02:35:52;70810.53;;;-144.90;100.00
75505;BME280;64085;54.974;73.410;2023-04-09T02:38:18;70810.53;;;-144.90;100.00
75505;BME280;64085;54.974;73.410;2023-04-09T02:40:43;70810.53;;;-144.90;100.00
75505;BME280;64085;54.974;73.410;2023-04-09T02:48:56;101057.78;;;11.41;11.30
75505;BME280;64085;54.974;73.410;2023-04-09T02:51:21;100804.28;;;35.06;5.13
75505;BME280;64085;54.974;73.410;2023-04-09T02:53:47;100784.16;;;34.69;4.83
75505;BME280;64085;54.974;73.410;2023-04-09T02:56:13;100801.91;;;35.47;4.65
75505;BME280;64085;54.974;73.410;2023-04-09T03:01:41;100798.22;;;36.74;4.54
75505;BME280;64085;54.974;73.410;2023-04-09T03:04:07;100803.34;;;37.42;3.70
75505;BME280;64085;54.974;73.410;2023-04-09T03:06:32;100798.22;;;37.71;4.26
75505;BME280;64085;54.974;73.410;2023-04-09T03:08:58;100803.50;;;38.08;3.97
75505;BME280;64085;54.974;73.410;2023-04-09T03:11:24;100805.00;;;38.56;3.76
75505;BME280;64085;54.974;73.410;2023-04-09T03:13:50;100799.38;;;37.98;3.14
75505;BME280;64085;54.974;73.410;2023-04-09T03:16:15;100809.25;;;38.49;3.36
75505;BME280;64085;54.974;73.410;2023-04-09T03:18:41;100770.00;;;37.99;3.25
75505;BME280;64085;54.974;73.410;2023-04-09T03:21:25;100803.63;;;38.68;3.18
75505;BME280;64085;54.974;73.410;2023-04-09T03:23:51;100809.81;;;38.48;3.64
75505;BME280;64085;54.974;73.410;2023-04-09T03:26:17;100813.97;;;39.12;3.03
75505;BME280;64085;54.974;73.410;2023-04-09T03:28:42;100810.81;;;39.78;2.80
75505;BME280;64085;54.974;73.410;2023-04-09T03:31:08;100816.72;;;40.23;2.67
75505;BME280;64085;54.974;73.410;2023-04-09T03:33:34;100814.47;;;39.11;2.93
75505;BME280;64085;54.974;73.410;2023-04-09T03:35:59;100807.66;;;39.57;2.59
75505;BME280;64085;54.974;73.410;2023-04-09T03:38:25;100823.94;;;40.17;2.83
75505;BME280;64085;54.974;73.410;2023-04-09T03:40:51;100821.00;;;40.68;2.78
75505;BME280;64085;54.974;73.410;2023-04-09T03:43:16;100823.13;;;42.00;2.24
75505;BME280;64085;54.974;73.410;2023-04-09T03:48:26;100840.31;;;43.80;1.61
75505;BME280;64085;54.974;73.410;2023-04-09T03:50:52;100844.22;;;45.10;1.02
75505;BME280;64085;54.974;73.410;2023-04-09T03:53:18;100835.50;;;45.73;1.35
75505;BME280;64085;54.974;73.410;2023-04-09T03:55:45;100845.66;;;45.57;1.33
75505;BME280;64085;54.974;73.410;2023-04-09T03:58:11;100851.69;;;45.67;0.80
75505;BME280;64085;54.974;73.410;2023-04-09T04:00:55;100859.84;;;44.08;1.33
75505;BME280;64085;54.974;73.410;2023-04-09T04:03:20;100845.16;;;45.43;1.14
75505;BME280;64085;54.974;73.410;2023-04-09T04:08:30;100856.81;;;44.44;1.06
75505;BME280;64085;54.974;73.410;2023-04-09T04:11:02;100850.84;;;44.80;1.00
75505;BME280;64085;54.974;73.410;2023-04-09T04:13:28;100847.97;;;46.14;1.07
75505;BME280;64085;54.974;73.410;2023-04-09T04:16:12;100859.09;;;47.16;0.31
75505;BME280;64085;54.974;73.410;2023-04-09T04:21:21;100863.22;;;47.12;0.65
75505;BME280;64085;54.974;73.410;2023-04-09T04:23:47;100866.53;;;46.92;0.71
75505;BME280;64085;54.974;73.410;2023-04-09T04:26:12;100867.28;;;46.42;1.14
75505;BME280;64085;54.974;73.410;2023-04-09T04:28:57;100869.16;;;46.80;0.52
75505;BME280;64085;54.974;73.410;2023-04-09T04:31:22;100883.06;;;46.97;0.36
75505;BME280;64085;54.974;73.410;2023-04-09T04:33:48;100875.31;;;46.92;0.49
75505;BME280;64085;54.974;73.410;2023-04-09T04:36:32;100872.69;;;46.78;0.60
75505;BME280;64085;54.974;73.410;2023-04-09T04:38:58;100871.19;;;46.05;0.98
75505;BME280;64085;54.974;73.410;2023-04-09T04:41:23;100878.09;;;46.57;0.74
75505;BME280;64085;54.974;73.410;2023-04-09T04:44:08;100882.31;;;47.13;0.89
75505;BME280;64085;54.974;73.410;2023-04-09T04:46:52;100877.38;;;48.37;0.27
75505;BME280;64085;54.974;73.410;2023-04-09T04:49:17;100856.28;;;47.25;0.62
75505;BME280;64085;54.974;73.410;2023-04-09T04:52:02;100884.19;;;46.84;0.52
75505;BME280;64085;54.974;73.410;2023-04-09T04:54:27;100888.09;;;47.63;0.50
75505;BME280;64085;54.974;73.410;2023-04-09T04:56:53;100872.94;;;47.15;0.50
75505;BME280;64085;54.974;73.410;2023-04-09T04:59:18;100883.63;;;47.03;0.26
75505;BME280;64085;54.974;73.410;2023-04-09T05:01:44;100886.38;;;46.51;0.66
75505;BME280;64085;54.974;73.410;2023-04-09T05:04:10;100888.59;;;45.87;1.22
75505;BME280;64085;54.974;73.410;2023-04-09T05:06:54;100890.13;;;45.96;1.08
75505;BME280;64085;54.974;73.410;2023-04-09T05:09:38;100898.63;;;45.61;1.20
75505;BME280;64085;54.974;73.410;2023-04-09T05:12:04;100886.22;;;45.23;1.50
75505;BME280;64085;54.974;73.410;2023-04-09T05:14:29;100892.41;;;44.50;1.32
75505;BME280;64085;54.974;73.410;2023-04-09T05:16:55;100899.25;;;44.99;1.24
75505;BME280;64085;54.974;73.410;2023-04-09T05:19:21;100891.41;;;45.62;1.41
75505;BME280;64085;54.974;73.410;2023-04-09T05:21:46;100892.97;;;45.71;1.33
75505;BME280;64085;54.974;73.410;2023-04-09T05:24:12;100879.81;;;45.24;1.20
75505;BME280;64085;54.974;73.410;2023-04-09T05:26:37;100903.47;;;46.79;0.69
75505;BME280;64085;54.974;73.410;2023-04-09T05:29:03;100890.81;;;46.19;1.30
75505;BME280;64085;54.974;73.410;2023-04-09T05:31:29;100907.00;;;46.78;0.50
75505;BME280;64085;54.974;73.410;2023-04-09T05:34:13;100901.72;;;46.84;0.33
75505;BME280;64085;54.974;73.410;2023-04-09T05:36:39;100916.31;;;47.09;0.48
75505;BME280;64085;54.974;73.410;2023-04-09T05:39:04;100903.25;;;47.10;0.75
75505;BME280;64085;54.974;73.410;2023-04-09T05:41:48;100913.66;;;45.04;1.26
75505;BME280;64085;54.974;73.410;2023-04-09T05:44:16;100880.50;;;45.70;1.23
75505;BME280;64085;54.974;73.410;2023-04-09T05:46:42;100908.50;;;46.29;0.61
75505;BME280;64085;54.974;73.410;2023-04-09T05:49:08;100918.34;;;46.09;1.14
75505;BME280;64085;54.974;73.410;2023-04-09T05:51:33;100922.38;;;45.58;1.33
75505;BME280;64085;54.974;73.410;2023-04-09T05:54:00;100914.63;;;45.07;1.13
75505;BME280;64085;54.974;73.410;2023-04-09T05:56:25;100903.09;;;45.55;1.07
75505;BME280;64085;54.974;73.410;2023-04-09T06:01:36;100906.84;;;45.25;0.93
75505;BME280;64085;54.974;73.410;2023-04-09T06:04:02;100910.16;;;44.75;1.04
75505;BME280;64085;54.974;73.410;2023-04-09T06:06:28;100912.53;;;44.18;1.31
75505;BME280;64085;54.974;73.410;2023-04-09T06:08:53;100908.88;;;44.32;1.62
75505;BME280;64085;54.974;73.410;2023-04-09T06:11:37;100910.88;;;43.37;1.88
75505;BME280;64085;54.974;73.410;2023-04-09T06:14:40;100903.06;;;42.82;2.11
75505;BME280;64085;54.974;73.410;2023-04-09T06:17:06;100911.91;;;41.69;2.42
75505;BME280;64085;54.974;73.410;2023-04-09T06:19:31;100880.69;;;41.48;2.68
75505;BME280;64085;54.974;73.410;2023-04-09T06:22:16;100912.75;;;41.11;2.53
75505;BME280;64085;54.974;73.410;2023-04-09T06:24:41;100907.50;;;40.26;2.90
75505;BME280;64085;54.974;73.410;2023-04-09T06:27:07;100908.59;;;40.23;2.92
75505;BME280;64085;54.974;73.410;2023-04-09T06:29:51;100916.34;;;40.15;2.69
75505;BME280;64085;54.974;73.410;2023-04-09T06:32:35;100897.13;;;39.93;2.85
75505;BME280;64085;54.974;73.410;2023-04-09T06:35:01;100894.25;;;37.55;4.10
75505;BME280;64085;54.974;73.410;2023-04-09T06:37:45;100869.69;;;33.67;5.07
75505;BME280;64085;54.974;73.410;2023-04-09T06:40:11;100892.03;;;29.30;7.69
75505;BME280;64085;54.974;73.410;2023-04-09T06:42:55;100898.53;;;27.05;8.81
75505;BME280;64085;54.974;73.410;2023-04-09T06:45:21;100890.78;;;24.95;10.18
75505;BME280;64085;54.974;73.410;2023-04-09T06:48:24;100890.09;;;22.91;12.36
75505;BME280;64085;54.974;73.410;2023-04-09T06:50:49;100851.97;;;21.39;13.35
75505;BME280;64085;54.974;73.410;2023-04-09T06:53:34;100895.91;;;21.71;13.40
75505;BME280;64085;54.974;73.410;2023-04-09T06:56:18;100898.34;;;22.06;13.41
75505;BME280;64085;54.974;73.410;2023-04-09T06:59:02;100898.63;;;21.33;13.82
75505;BME280;64085;54.974;73.410;2023-04-09T07:01:28;100866.94;;;21.22;14.03
75505;BME280;64085;54.974;73.410;2023-04-09T07:03:54;100883.66;;;20.88;14.53
75505;BME280;64085;54.974;73.410;2023-04-09T07:06:19;100885.50;;;20.32;14.73
75505;BME280;64085;54.974;73.410;2023-04-09T07:08:45;100885.09;;;20.44;14.57
75505;BME280;64085;54.974;73.410;2023-04-09T07:11:11;100885.09;;;20.44;14.57
75505;BME280;64085;54.974;73.410;2023-04-09T07:13:37;70810.53;;;-144.90;100.00
75505;BME280;64085;54.974;73.410;2023-04-09T07:18:48;70810.53;;;-144.90;100.00
75505;BME280;64085;54.974;73.410;2023-04-09T07:21:13;70810.53;;;-144.90;100.00
75505;BME280;64085;54.974;73.410;2023-04-09T07:23:58;70810.53;;;-144.90;100.00
75505;BME280;64085;54.974;73.410;2023-04-09T07:26:23;70810.53;;;-144.90;100.00
75505;BME280;64085;54.974;73.410;2023-04-09T07:29:08;70810.53;;;-144.90;100.00
75505;BME280;64085;54.974;73.410;2023-04-09T07:31:33;70810.53;;;-144.90;100.00
75505;BME280;64085;54.974;73.410;2023-04-09T07:34:00;70810.53;;;-144.90;100.00
75505;BME280;64085;54.974;73.410;2023-04-09T07:36:44;70810.53;;;-144.90;100.00
75505;BME280;64085;54.974;73.410;2023-04-09T07:39:10;70810.53;;;-144.90;100.00
75505;BME280;64085;54.974;73.410;2023-04-09T07:41:35;70810.53;;;-144.90;100.00
75505;BME280;64085;54.974;73.410;2023-04-09T07:44:01;70810.53;;;-144.90;100.00
75505;BME280;64085;54.974;73.410;2023-04-09T07:46:28;70810.53;;;-144.90;100.00
75505;BME280;64085;54.974;73.410;2023-04-09T07:49:12;70810.53;;;-144.90;100.00
75505;BME280;64085;54.974;73.410;2023-04-09T07:51:37;70810.53;;;-144.90;100.00
75505;BME280;64085;54.974;73.410;2023-04-09T07:56:47;70810.53;;;-144.90;100.00
75505;BME280;64085;54.974;73.410;2023-04-09T07:59:32;70810.53;;;-144.90;100.00
75505;BME280;64085;54.974;73.410;2023-04-09T08:01:58;70810.53;;;-144.90;100.00
75505;BME280;64085;54.974;73.410;2023-04-09T08:04:24;70810.53;;;-144.90;100.00
75505;BME280;64085;54.974;73.410;2023-04-09T08:06:50;70810.53;;;-144.90;100.00
75505;BME280;64085;54.974;73.410;2023-04-09T08:09:18;70810.53;;;-144.90;100.00
75505;BME280;64085;54.974;73.410;2023-04-09T08:12:02;70810.53;;;-144.90;100.00
75505;BME280;64085;54.974;73.410;2023-04-09T08:14:28;70810.53;;;-144.90;100.00
75505;BME280;64085;54.974;73.410;2023-04-09T08:16:54;70810.53;;;-144.90;100.00
75505;BME280;64085;54.974;73.410;2023-04-09T08:19:20;70810.53;;;-144.90;100.00
75505;BME280;64085;54.974;73.410;2023-04-09T08:21:46;70810.53;;;-144.90;100.00
75505;BME280;64085;54.974;73.410;2023-04-09T08:24:15;70810.53;;;-144.90;100.00
75505;BME280;64085;54.974;73.410;2023-04-09T08:26:41;70810.53;;;-144.90;100.00
75505;BME280;64085;54.974;73.410;2023-04-09T08:29:09;70810.53;;;-144.90;100.00
75505;BME280;64085;54.974;73.410;2023-04-09T08:34:19;70810.53;;;-144.90;100.00
75505;BME280;64085;54.974;73.410;2023-04-09T08:37:21;70810.53;;;-144.90;100.00
75505;BME280;64085;54.974;73.410;2023-04-09T08:39:47;70810.53;;;-144.90;100.00
75505;BME280;64085;54.974;73.410;2023-04-09T08:42:33;70810.53;;;-144.90;100.00
75505;BME280;64085;54.974;73.410;2023-04-09T08:45:03;70810.53;;;-144.90;100.00
75505;BME280;64085;54.974;73.410;2023-04-09T08:47:31;70810.53;;;-144.90;100.00
75505;BME280;64085;54.974;73.410;2023-04-09T08:49:56;70810.53;;;-144.90;100.00
75505;BME280;64085;54.974;73.410;2023-04-09T08:52:32;70810.53;;;-144.90;100.00
75505;BME280;64085;54.974;73.410;2023-04-09T08:54:58;70810.53;;;-144.90;100.00
75505;BME280;64085;54.974;73.410;2023-04-09T08:57:24;70810.53;;;-144.90;100.00
75505;BME280;64085;54.974;73.410;2023-04-09T08:59:50;70810.53;;;-144.90;100.00
75505;BME280;64085;54.974;73.410;2023-04-09T09:02:16;70810.53;;;-144.90;100.00
75505;BME280;64085;54.974;73.410;2023-04-09T09:04:46;70810.53;;;-144.90;100.00
75505;BME280;64085;54.974;73.410;2023-04-09T09:07:13;70810.53;;;-144.90;100.00
75505;BME280;64085;54.974;73.410;2023-04-09T09:12:42;70810.53;;;-144.90;100.00
75505;BME280;64085;54.974;73.410;2023-04-09T09:15:25;70810.53;;;-144.90;100.00
75505;BME280;64085;54.974;73.410;2023-04-09T09:17:57;70810.53;;;-144.90;100.00
75505;BME280;64085;54.974;73.410;2023-04-09T09:20:41;70810.53;;;-144.90;100.00
75505;BME280;64085;54.974;73.410;2023-04-09T09:23:07;70810.53;;;-144.90;100.00
75505;BME280;64085;54.974;73.410;2023-04-09T09:25:38;70810.53;;;-144.90;100.00
75505;BME280;64085;54.974;73.410;2023-04-09T09:33:52;70810.53;;;-144.90;100.00
75505;BME280;64085;54.974;73.410;2023-04-09T09:36:32;70810.53;;;-144.90;100.00
75505;BME280;64085;54.974;73.410;2023-04-09T09:38:59;70810.53;;;-144.90;100.00
75505;BME280;64085;54.974;73.410;2023-04-09T09:41:44;70810.53;;;-144.90;100.00
75505;BME280;64085;54.974;73.410;2023-04-09T09:44:11;70810.53;;;-144.90;100.00
75505;BME280;64085;54.974;73.410;2023-04-09T09:46:39;70810.53;;;-144.90;100.00
75505;BME280;64085;54.974;73.410;2023-04-09T09:49:07;70810.53;;;-144.90;100.00
75505;BME280;64085;54.974;73.410;2023-04-09T09:51:38;70810.53;;;-144.90;100.00
75505;BME280;64085;54.974;73.410;2023-04-09T09:54:23;70810.53;;;-144.90;100.00
75505;BME280;64085;54.974;73.410;2023-04-09T09:56:51;70810.53;;;-144.90;100.00
75505;BME280;64085;54.974;73.410;2023-04-09T10:04:51;70810.53;;;-144.90;100.00
75505;BME280;64085;54.974;73.410;2023-04-09T10:07:18;70810.53;;;-144.90;100.00
75505;BME280;64085;54.974;73.410;2023-04-09T10:09:48;70810.53;;;-144.90;100.00
75505;BME280;64085;54.974;73.410;2023-04-09T10:12:15;70810.53;;;-144.90;100.00
75505;BME280;64085;54.974;73.410;2023-04-09T10:15:18;70810.53;;;-144.90;100.00
75505;BME280;64085;54.974;73.410;2023-04-09T10:17:44;70810.53;;;-144.90;100.00
75505;BME280;64085;54.974;73.410;2023-04-09T10:20:26;70810.53;;;-144.90;100.00
75505;BME280;64085;54.974;73.410;2023-04-09T10:22:54;70810.53;;;-144.90;100.00
75505;BME280;64085;54.974;73.410;2023-04-09T10:25:21;70810.53;;;-144.90;100.00
75505;BME280;64085;54.974;73.410;2023-04-09T10:27:58;70810.53;;;-144.90;100.00
75505;BME280;64085;54.974;73.410;2023-04-09T10:30:34;70810.53;;;-144.90;100.00
75505;BME280;64085;54.974;73.410;2023-04-09T10:33:18;70810.53;;;-144.90;100.00
75505;BME280;64085;54.974;73.410;2023-04-09T10:35:46;70810.53;;;-144.90;100.00
75505;BME280;64085;54.974;73.410;2023-04-09T10:38:14;70810.53;;;-144.90;100.00
75505;BME280;64085;54.974;73.410;2023-04-09T10:40:49;70810.53;;;-144.90;100.00
75505;BME280;64085;54.974;73.410;2023-04-09T10:43:18;70810.53;;;-144.90;100.00
75505;BME280;64085;54.974;73.410;2023-04-09T10:45:45;70810.53;;;-144.90;100.00
75505;BME280;64085;54.974;73.410;2023-04-09T10:48:18;70810.53;;;-144.90;100.00
75505;BME280;64085;54.974;73.410;2023-04-09T10:50:44;70810.53;;;-144.90;100.00
75505;BME280;64085;54.974;73.410;2023-04-09T10:53:28;70810.53;;;-144.90;100.00
75505;BME280;64085;54.974;73.410;2023-04-09T10:55:54;70810.53;;;-144.90;100.00
75505;BME280;64085;54.974;73.410;2023-04-09T10:58:20;70810.53;;;-144.90;100.00
75505;BME280;64085;54.974;73.410;2023-04-09T11:01:04;70810.53;;;-144.90;100.00
75505;BME280;64085;54.974;73.410;2023-04-09T11:03:35;70810.53;;;-144.90;100.00
75505;BME280;64085;54.974;73.410;2023-04-09T11:06:05;70810.53;;;-144.90;100.00
75505;BME280;64085;54.974;73.410;2023-04-09T11:11:28;70810.53;;;-144.90;100.00
75505;BME280;64085;54.974;73.410;2023-04-09T11:13:58;70810.53;;;-144.90;100.00
75505;BME280;64085;54.974;73.410;2023-04-09T11:16:28;70810.53;;;-144.90;100.00
75505;BME280;64085;54.974;73.410;2023-04-09T11:19:09;70810.53;;;-144.90;100.00
75505;BME280;64085;54.974;73.410;2023-04-09T11:21:35;70810.53;;;-144.90;100.00
75505;BME280;64085;54.974;73.410;2023-04-09T11:24:01;70810.53;;;-144.90;100.00
75505;BME280;64085;54.974;73.410;2023-04-09T11:26:47;70810.53;;;-144.90;100.00
75505;BME280;64085;54.974;73.410;2023-04-09T11:29:13;70810.53;;;-144.90;100.00
75505;BME280;64085;54.974;73.410;2023-04-09T11:31:42;70810.53;;;-144.90;100.00
75505;BME280;64085;54.974;73.410;2023-04-09T11:34:09;70810.53;;;-144.90;100.00
75505;BME280;64085;54.974;73.410;2023-04-09T11:36:36;70810.53;;;-144.90;100.00
75505;BME280;64085;54.974;73.410;2023-04-09T11:39:03;70810.53;;;-144.90;100.00
75505;BME280;64085;54.974;73.410;2023-04-09T11:41:36;70810.53;;;-144.90;100.00
75505;BME280;64085;54.974;73.410;2023-04-09T11:44:06;70810.53;;;-144.90;100.00
75505;BME280;64085;54.974;73.410;2023-04-09T11:46:33;70810.53;;;-144.90;100.00
75505;BME280;64085;54.974;73.410;2023-04-09T11:49:18;70810.53;;;-144.90;100.00
75505;BME280;64085;54.974;73.410;2023-04-09T11:51:44;70810.53;;;-144.90;100.00
75505;BME280;64085;54.974;73.410;2023-04-09T11:54:11;70810.53;;;-144.90;100.00
75505;BME280;64085;54.974;73.410;2023-04-09T11:56:36;70810.53;;;-144.90;100.00
75505;BME280;64085;54.974;73.410;2023-04-09T11:59:02;70810.53;;;-144.90;100.00
75505;BME280;64085;54.974;73.410;2023-04-09T12:04:19;70810.53;;;-144.90;100.00
75505;BME280;64085;54.974;73.410;2023-04-09T12:06:49;70810.53;;;-144.90;100.00
75505;BME280;64085;54.974;73.410;2023-04-09T12:09:15;70810.53;;;-144.90;100.00
75505;BME280;64085;54.974;73.410;2023-04-09T12:11:44;70810.53;;;-144.90;100.00
75505;BME280;64085;54.974;73.410;2023-04-09T12:14:14;70810.53;;;-144.90;100.00
75505;BME280;64085;54.974;73.410;2023-04-09T12:16:41;70810.53;;;-144.90;100.00
75505;BME280;64085;54.974;73.410;2023-04-09T12:21:54;70810.53;;;-144.90;100.00
75505;BME280;64085;54.974;73.410;2023-04-09T12:24:24;70810.53;;;-144.90;100.00
75505;BME280;64085;54.974;73.410;2023-04-09T12:26:50;70810.53;;;-144.90;100.00
75505;BME280;64085;54.974;73.410;2023-04-09T12:29:18;70810.53;;;-144.90;100.00
75505;BME280;64085;54.974;73.410;2023-04-09T12:34:29;70810.53;;;-144.90;100.00
75505;BME280;64085;54.974;73.410;2023-04-09T12:36:55;70810.53;;;-144.90;100.00
75505;BME280;64085;54.974;73.410;2023-04-09T12:39:39;70810.53;;;-144.90;100.00
75505;BME280;64085;54.974;73.410;2023-04-09T12:42:05;70810.53;;;-144.90;100.00
75505;BME280;64085;54.974;73.410;2023-04-09T12:44:30;70810.53;;;-144.90;100.00
75505;BME280;64085;54.974;73.410;2023-04-09T12:47:14;70810.53;;;-144.90;100.00
75505;BME280;64085;54.974;73.410;2023-04-09T12:49:41;70810.53;;;-144.90;100.00
75505;BME280;64085;54.974;73.410;2023-04-09T12:52:09;70810.53;;;-144.90;100.00
75505;BME280;64085;54.974;73.410;2023-04-09T12:54:35;70810.53;;;-144.90;100.00
75505;BME280;64085;54.974;73.410;2023-04-09T12:57:00;70810.53;;;-144.90;100.00
75505;BME280;64085;54.974;73.410;2023-04-09T12:59:26;70810.53;;;-144.90;100.00
75505;BME280;64085;54.974;73.410;2023-04-09T13:01:52;70810.53;;;-144.90;100.00
75505;BME280;64085;54.974;73.410;2023-04-09T13:04:17;70810.53;;;-144.90;100.00
75505;BME280;64085;54.974;73.410;2023-04-09T13:06:43;70810.53;;;-144.90;100.00
75505;BME280;64085;54.974;73.410;2023-04-09T13:09:27;70810.53;;;-144.90;100.00
75505;BME280;64085;54.974;73.410;2023-04-09T13:12:11;70810.53;;;-144.90;100.00
75505;BME280;64085;54.974;73.410;2023-04-09T13:14:55;70810.53;;;-144.90;100.00
75505;BME280;64085;54.974;73.410;2023-04-09T13:17:23;70810.53;;;-144.90;100.00
75505;BME280;64085;54.974;73.410;2023-04-09T13:19:49;70810.53;;;-144.90;100.00
75505;BME280;64085;54.974;73.410;2023-04-09T13:22:17;70810.53;;;-144.90;100.00
75505;BME280;64085;54.974;73.410;2023-04-09T13:24:42;70810.53;;;-144.90;100.00
75505;BME280;64085;54.974;73.410;2023-04-09T13:27:09;70810.53;;;-144.90;100.00
75505;BME280;64085;54.974;73.410;2023-04-09T13:29:53;70810.53;;;-144.90;100.00
75505;BME280;64085;54.974;73.410;2023-04-09T13:32:20;70810.53;;;-144.90;100.00
75505;BME280;64085;54.974;73.410;2023-04-09T13:35:05;70810.53;;;-144.90;100.00
75505;BME280;64085;54.974;73.410;2023-04-09T13:40:15;70810.53;;;-144.90;100.00
75505;BME280;64085;54.974;73.410;2023-04-09T13:42:41;70810.53;;;-144.90;100.00
75505;BME280;64085;54.974;73.410;2023-04-09T13:47:50;70810.53;;;-144.90;100.00
75505;BME280;64085;54.974;73.410;2023-04-09T13:53:01;70810.53;;;-144.90;100.00
75505;BME280;64085;54.974;73.410;2023-04-09T13:55:29;70810.53;;;-144.90;100.00
75505;BME280;64085;54.974;73.410;2023-04-09T13:57:55;70810.53;;;-144.90;100.00
75505;BME280;64085;54.974;73.410;2023-04-09T14:00:39;70810.53;;;-144.90;100.00
75505;BME280;64085;54.974;73.410;2023-04-09T14:03:23;70810.53;;;-144.90;100.00
75505;BME280;64085;54.974;73.410;2023-04-09T14:05:49;70810.53;;;-144.90;100.00
75505;BME280;64085;54.974;73.410;2023-04-09T14:08:15;70810.53;;;-144.90;100.00
75505;BME280;64085;54.974;73.410;2023-04-09T14:10:41;70810.53;;;-144.90;100.00
75505;BME280;64085;54.974;73.410;2023-04-09T14:13:06;70810.53;;;-144.90;100.00